sensor_id;sensor_type;location;lat;lon;timestamp;temperature;humidity
74384;DHT22;62824;52.994;-3.936;2023-08-08T00:01:24;14.30;99.90
74384;DHT22;62824;52.994;-3.936;2023-08-08T00:03:50;14.30;99.90
74384;DHT22;62824;52.994;-3.936;2023-08-08T00:06:15;14.30;99.90
74384;DHT22;62824;52.994;-3.936;2023-08-08T00:08:41;14.30;99.90
74384;DHT22;62824;52.994;-3.936;2023-08-08T00:11:07;14.20;99.90
74384;DHT22;62824;52.994;-3.936;2023-08-08T00:13:33;14.20;99.90
74384;DHT22;62824;52.994;-3.936;2023-08-08T00:15:59;14.20;99.90
74384;DHT22;62824;52.994;-3.936;2023-08-08T00:18:25;14.20;99.90
74384;DHT22;62824;52.994;-3.936;2023-08-08T00:20:51;14.20;99.90
74384;DHT22;62824;52.994;-3.936;2023-08-08T00:23:16;14.20;99.90
74384;DHT22;62824;52.994;-3.936;2023-08-08T00:25:42;14.20;99.90
74384;DHT22;62824;52.994;-3.936;2023-08-08T00:28:08;14.20;99.90
74384;DHT22;62824;52.994;-3.936;2023-08-08T00:30:34;14.10;99.90
74384;DHT22;62824;52.994;-3.936;2023-08-08T00:33:00;14.10;99.90
74384;DHT22;62824;52.994;-3.936;2023-08-08T00:35:25;13.90;99.90
74384;DHT22;62824;52.994;-3.936;2023-08-08T00:37:51;14.00;99.90
74384;DHT22;62824;52.994;-3.936;2023-08-08T00:40:17;14.00;99.90
74384;DHT22;62824;52.994;-3.936;2023-08-08T00:42:43;14.00;99.90
74384;DHT22;62824;52.994;-3.936;2023-08-08T00:45:08;14.00;99.90
74384;DHT22;62824;52.994;-3.936;2023-08-08T00:47:34;13.80;99.90
74384;DHT22;62824;52.994;-3.936;2023-08-08T00:50:02;13.90;99.90
74384;DHT22;62824;52.994;-3.936;2023-08-08T00:52:28;13.90;99.90
74384;DHT22;62824;52.994;-3.936;2023-08-08T00:54:54;13.90;99.90
74384;DHT22;62824;52.994;-3.936;2023-08-08T00:57:21;13.90;99.90
74384;DHT22;62824;52.994;-3.936;2023-08-08T00:59:46;14.00;99.90
74384;DHT22;62824;52.994;-3.936;2023-08-08T01:02:12;14.00;99.90
74384;DHT22;62824;52.994;-3.936;2023-08-08T01:04:38;14.00;99.90
74384;DHT22;62824;52.994;-3.936;2023-08-08T01:07:34;14.00;99.90
74384;DHT22;62824;52.994;-3.936;2023-08-08T01:12:41;14.00;99.90
74384;DHT22;62824;52.994;-3.936;2023-08-08T01:15:08;13.90;99.90
74384;DHT22;62824;52.994;-3.936;2023-08-08T01:17:35;14.00;99.90
74384;DHT22;62824;52.994;-3.936;2023-08-08T01:20:05;14.00;99.90
74384;DHT22;62824;52.994;-3.936;2023-08-08T01:22:40;13.90;99.90
74384;DHT22;62824;52.994;-3.936;2023-08-08T01:25:08;14.00;99.90
74384;DHT22;62824;52.994;-3.936;2023-08-08T01:27:35;14.00;99.90
74384;DHT22;62824;52.994;-3.936;2023-08-08T01:30:01;14.00;99.90
74384;DHT22;62824;52.994;-3.936;2023-08-08T01:32:27;13.90;99.90
74384;DHT22;62824;52.994;-3.936;2023-08-08T01:34:53;14.00;99.90
74384;DHT22;62824;52.994;-3.936;2023-08-08T01:37:29;14.00;99.90
74384;DHT22;62824;52.994;-3.936;2023-08-08T01:39:58;13.90;99.90
74384;DHT22;62824;52.994;-3.936;2023-08-08T01:42:25;13.80;99.90
74384;DHT22;62824;52.994;-3.936;2023-08-08T01:44:53;13.70;99.90
74384;DHT22;62824;52.994;-3.936;2023-08-08T01:47:19;13.70;99.90
74384;DHT22;62824;52.994;-3.936;2023-08-08T01:49:45;13.70;99.90
74384;DHT22;62824;52.994;-3.936;2023-08-08T01:52:11;13.70;99.90
74384;DHT22;62824;52.994;-3.936;2023-08-08T01:54:36;13.70;99.90
74384;DHT22;62824;52.994;-3.936;2023-08-08T01:57:02;13.70;99.90
74384;DHT22;62824;52.994;-3.936;2023-08-08T01:59:28;13.70;99.90
74384;DHT22;62824;52.994;-3.936;2023-08-08T02:01:54;13.70;99.90
74384;DHT22;62824;52.994;-3.936;2023-08-08T02:04:20;13.70;99.90
74384;DHT22;62824;52.994;-3.936;2023-08-08T02:06:45;13.70;99.90
74384;DHT22;62824;52.994;-3.936;2023-08-08T02:09:11;13.80;99.90
74384;DHT22;62824;52.994;-3.936;2023-08-08T02:11:40;13.70;99.90
74384;DHT22;62824;52.994;-3.936;2023-08-08T02:14:05;13.70;99.90
74384;DHT22;62824;52.994;-3.936;2023-08-08T02:16:31;13.80;99.90
74384;DHT22;62824;52.994;-3.936;2023-08-08T02:18:57;13.80;99.90
74384;DHT22;62824;52.994;-3.936;2023-08-08T02:21:23;13.80;99.90
74384;DHT22;62824;52.994;-3.936;2023-08-08T02:23:49;13.80;99.90
74384;DHT22;62824;52.994;-3.936;2023-08-08T02:26:14;13.90;99.90
74384;DHT22;62824;52.994;-3.936;2023-08-08T02:28:40;13.90;99.90
74384;DHT22;62824;52.994;-3.936;2023-08-08T02:31:06;13.90;99.90
74384;DHT22;62824;52.994;-3.936;2023-08-08T02:33:32;13.80;99.90
74384;DHT22;62824;52.994;-3.936;2023-08-08T02:35:58;13.90;99.90
74384;DHT22;62824;52.994;-3.936;2023-08-08T02:38:23;13.90;99.90
74384;DHT22;62824;52.994;-3.936;2023-08-08T02:40:49;13.90;99.90
74384;DHT22;62824;52.994;-3.936;2023-08-08T02:43:15;14.00;99.90
74384;DHT22;62824;52.994;-3.936;2023-08-08T02:45:42;14.00;99.90
74384;DHT22;62824;52.994;-3.936;2023-08-08T02:48:07;13.90;99.90
74384;DHT22;62824;52.994;-3.936;2023-08-08T02:50:33;14.00;99.90
74384;DHT22;62824;52.994;-3.936;2023-08-08T02:52:59;14.00;99.90
74384;DHT22;62824;52.994;-3.936;2023-08-08T02:55:25;13.90;99.90
74384;DHT22;62824;52.994;-3.936;2023-08-08T02:57:50;13.90;99.90
74384;DHT22;62824;52.994;-3.936;2023-08-08T03:00:19;13.80;99.90
74384;DHT22;62824;52.994;-3.936;2023-08-08T03:02:45;13.80;99.90
74384;DHT22;62824;52.994;-3.936;2023-08-08T03:05:10;13.80;99.90
74384;DHT22;62824;52.994;-3.936;2023-08-08T03:07:36;13.80;99.90
74384;DHT22;62824;52.994;-3.936;2023-08-08T03:10:02;13.70;99.90
74384;DHT22;62824;52.994;-3.936;2023-08-08T03:12:28;13.70;99.90
74384;DHT22;62824;52.994;-3.936;2023-08-08T03:14:54;13.70;99.90
74384;DHT22;62824;52.994;-3.936;2023-08-08T03:17:20;13.80;99.90
74384;DHT22;62824;52.994;-3.936;2023-08-08T03:19:45;13.80;99.90
74384;DHT22;62824;52.994;-3.936;2023-08-08T03:22:11;13.80;99.90
74384;DHT22;62824;52.994;-3.936;2023-08-08T03:24:37;13.80;99.90
74384;DHT22;62824;52.994;-3.936;2023-08-08T03:27:03;13.80;99.90
74384;DHT22;62824;52.994;-3.936;2023-08-08T03:29:29;13.80;99.90
74384;DHT22;62824;52.994;-3.936;2023-08-08T03:31:54;13.80;99.90
74384;DHT22;62824;52.994;-3.936;2023-08-08T03:34:20;13.70;99.90
74384;DHT22;62824;52.994;-3.936;2023-08-08T03:36:46;13.70;99.90
74384;DHT22;62824;52.994;-3.936;2023-08-08T03:39:11;13.70;99.90
74384;DHT22;62824;52.994;-3.936;2023-08-08T03:41:37;13.70;99.90
74384;DHT22;62824;52.994;-3.936;2023-08-08T03:44:03;13.70;99.90
74384;DHT22;62824;52.994;-3.936;2023-08-08T03:46:29;13.70;99.90
74384;DHT22;62824;52.994;-3.936;2023-08-08T03:48:55;13.70;99.90
74384;DHT22;62824;52.994;-3.936;2023-08-08T03:51:21;13.60;99.90
74384;DHT22;62824;52.994;-3.936;2023-08-08T03:53:46;13.60;99.90
74384;DHT22;62824;52.994;-3.936;2023-08-08T03:56:12;13.60;99.90
74384;DHT22;62824;52.994;-3.936;2023-08-08T03:58:38;13.60;99.90
74384;DHT22;62824;52.994;-3.936;2023-08-08T04:01:04;13.50;99.90
74384;DHT22;62824;52.994;-3.936;2023-08-08T04:03:30;13.50;99.90
74384;DHT22;62824;52.994;-3.936;2023-08-08T04:05:56;13.50;99.90
74384;DHT22;62824;52.994;-3.936;2023-08-08T04:08:21;13.50;99.90
74384;DHT22;62824;52.994;-3.936;2023-08-08T04:10:47;13.50;99.90
74384;DHT22;62824;52.994;-3.936;2023-08-08T04:13:13;13.40;99.90
74384;DHT22;62824;52.994;-3.936;2023-08-08T04:15:39;13.40;99.90
74384;DHT22;62824;52.994;-3.936;2023-08-08T04:18:04;13.40;99.90
74384;DHT22;62824;52.994;-3.936;2023-08-08T04:20:33;13.40;99.90
74384;DHT22;62824;52.994;-3.936;2023-08-08T04:22:59;13.40;99.90
74384;DHT22;62824;52.994;-3.936;2023-08-08T04:25:25;13.40;99.90
74384;DHT22;62824;52.994;-3.936;2023-08-08T04:27:51;13.50;99.90
74384;DHT22;62824;52.994;-3.936;2023-08-08T04:30:16;13.50;99.90
74384;DHT22;62824;52.994;-3.936;2023-08-08T04:32:42;13.50;99.90
74384;DHT22;62824;52.994;-3.936;2023-08-08T04:35:08;13.50;99.90
74384;DHT22;62824;52.994;-3.936;2023-08-08T04:37:33;13.50;99.90
74384;DHT22;62824;52.994;-3.936;2023-08-08T04:39:59;13.50;99.90
74384;DHT22;62824;52.994;-3.936;2023-08-08T04:42:25;13.50;99.90
74384;DHT22;62824;52.994;-3.936;2023-08-08T04:44:51;13.40;99.90
74384;DHT22;62824;52.994;-3.936;2023-08-08T04:47:16;13.50;99.90
74384;DHT22;62824;52.994;-3.936;2023-08-08T04:49:42;13.50;99.90
74384;DHT22;62824;52.994;-3.936;2023-08-08T04:52:08;13.50;99.90
74384;DHT22;62824;52.994;-3.936;2023-08-08T04:54:33;13.50;99.90
74384;DHT22;62824;52.994;-3.936;2023-08-08T04:56:59;13.50;99.90
74384;DHT22;62824;52.994;-3.936;2023-08-08T04:59:25;13.50;99.90
74384;DHT22;62824;52.994;-3.936;2023-08-08T05:01:51;13.50;99.90
74384;DHT22;62824;52.994;-3.936;2023-08-08T05:04:17;13.50;99.90
74384;DHT22;62824;52.994;-3.936;2023-08-08T05:06:43;13.60;99.90
74384;DHT22;62824;52.994;-3.936;2023-08-08T05:09:09;13.50;99.90
74384;DHT22;62824;52.994;-3.936;2023-08-08T05:11:36;13.50;99.90
74384;DHT22;62824;52.994;-3.936;2023-08-08T05:14:01;13.60;99.90
74384;DHT22;62824;52.994;-3.936;2023-08-08T05:16:28;13.60;99.90
74384;DHT22;62824;52.994;-3.936;2023-08-08T05:18:54;13.60;99.90
74384;DHT22;62824;52.994;-3.936;2023-08-08T05:21:21;13.70;99.90
74384;DHT22;62824;52.994;-3.936;2023-08-08T05:23:46;13.70;99.90
74384;DHT22;62824;52.994;-3.936;2023-08-08T05:26:14;13.60;99.90
74384;DHT22;62824;52.994;-3.936;2023-08-08T05:28:40;13.60;99.90
74384;DHT22;62824;52.994;-3.936;2023-08-08T05:31:06;13.70;99.90
74384;DHT22;62824;52.994;-3.936;2023-08-08T05:33:32;13.70;99.90
74384;DHT22;62824;52.994;-3.936;2023-08-08T05:35:58;13.70;99.90
74384;DHT22;62824;52.994;-3.936;2023-08-08T05:38:24;13.70;99.90
74384;DHT22;62824;52.994;-3.936;2023-08-08T05:40:49;13.70;99.90
74384;DHT22;62824;52.994;-3.936;2023-08-08T05:43:16;13.90;99.90
74384;DHT22;62824;52.994;-3.936;2023-08-08T05:45:44;13.90;99.90
74384;DHT22;62824;52.994;-3.936;2023-08-08T05:48:10;13.90;99.90
74384;DHT22;62824;52.994;-3.936;2023-08-08T05:50:38;14.00;99.90
74384;DHT22;62824;52.994;-3.936;2023-08-08T05:53:04;14.00;99.90
74384;DHT22;62824;52.994;-3.936;2023-08-08T05:55:30;14.00;99.90
74384;DHT22;62824;52.994;-3.936;2023-08-08T05:57:56;14.10;99.90
74384;DHT22;62824;52.994;-3.936;2023-08-08T06:00:22;14.10;99.90
74384;DHT22;62824;52.994;-3.936;2023-08-08T06:02:48;14.20;99.90
74384;DHT22;62824;52.994;-3.936;2023-08-08T06:05:14;14.20;99.90
74384;DHT22;62824;52.994;-3.936;2023-08-08T06:07:39;14.10;99.90
74384;DHT22;62824;52.994;-3.936;2023-08-08T06:10:06;14.10;99.90
74384;DHT22;62824;52.994;-3.936;2023-08-08T06:12:33;14.20;99.90
74384;DHT22;62824;52.994;-3.936;2023-08-08T06:14:59;14.20;99.90
74384;DHT22;62824;52.994;-3.936;2023-08-08T06:17:25;14.30;99.90
74384;DHT22;62824;52.994;-3.936;2023-08-08T06:19:51;14.30;99.90
74384;DHT22;62824;52.994;-3.936;2023-08-08T06:22:17;14.40;99.90
74384;DHT22;62824;52.994;-3.936;2023-08-08T06:24:43;14.40;99.90
74384;DHT22;62824;52.994;-3.936;2023-08-08T06:27:08;14.40;99.90
74384;DHT22;62824;52.994;-3.936;2023-08-08T06:29:34;14.40;99.90
74384;DHT22;62824;52.994;-3.936;2023-08-08T06:32:00;14.50;99.90
74384;DHT22;62824;52.994;-3.936;2023-08-08T06:34:26;14.50;99.90
74384;DHT22;62824;52.994;-3.936;2023-08-08T06:36:55;14.50;99.90
74384;DHT22;62824;52.994;-3.936;2023-08-08T06:39:21;14.50;99.90
74384;DHT22;62824;52.994;-3.936;2023-08-08T06:41:47;14.60;99.90
74384;DHT22;62824;52.994;-3.936;2023-08-08T06:44:13;14.60;99.90
74384;DHT22;62824;52.994;-3.936;2023-08-08T06:46:39;14.60;99.90
74384;DHT22;62824;52.994;-3.936;2023-08-08T06:49:05;14.60;99.90
74384;DHT22;62824;52.994;-3.936;2023-08-08T06:51:32;14.60;99.90
74384;DHT22;62824;52.994;-3.936;2023-08-08T06:53:58;14.60;99.90
74384;DHT22;62824;52.994;-3.936;2023-08-08T06:56:24;14.60;99.90
74384;DHT22;62824;52.994;-3.936;2023-08-08T06:58:52;14.60;99.90
74384;DHT22;62824;52.994;-3.936;2023-08-08T07:01:17;14.60;99.90
74384;DHT22;62824;52.994;-3.936;2023-08-08T07:03:43;14.60;99.90
74384;DHT22;62824;52.994;-3.936;2023-08-08T07:06:10;14.70;99.90
74384;DHT22;62824;52.994;-3.936;2023-08-08T07:08:36;14.70;99.90
74384;DHT22;62824;52.994;-3.936;2023-08-08T07:11:05;14.80;99.90
74384;DHT22;62824;52.994;-3.936;2023-08-08T07:13:32;14.80;99.90
74384;DHT22;62824;52.994;-3.936;2023-08-08T07:15:57;14.80;99.90
74384;DHT22;62824;52.994;-3.936;2023-08-08T07:18:23;14.90;99.90
74384;DHT22;62824;52.994;-3.936;2023-08-08T07:20:49;15.00;99.90
74384;DHT22;62824;52.994;-3.936;2023-08-08T07:23:15;15.00;99.90
74384;DHT22;62824;52.994;-3.936;2023-08-08T07:25:42;15.10;99.90
74384;DHT22;62824;52.994;-3.936;2023-08-08T07:28:08;15.10;99.90
74384;DHT22;62824;52.994;-3.936;2023-08-08T07:30:35;15.20;99.90
74384;DHT22;62824;52.994;-3.936;2023-08-08T07:33:00;15.20;99.90
74384;DHT22;62824;52.994;-3.936;2023-08-08T07:35:26;15.20;99.90
74384;DHT22;62824;52.994;-3.936;2023-08-08T07:37:53;15.30;99.90
74384;DHT22;62824;52.994;-3.936;2023-08-08T07:40:20;15.30;99.90
74384;DHT22;62824;52.994;-3.936;2023-08-08T07:42:48;15.40;99.90
74384;DHT22;62824;52.994;-3.936;2023-08-08T07:45:14;15.50;99.90
74384;DHT22;62824;52.994;-3.936;2023-08-08T07:47:40;15.60;99.90
74384;DHT22;62824;52.994;-3.936;2023-08-08T07:50:07;15.60;99.90
74384;DHT22;62824;52.994;-3.936;2023-08-08T07:52:36;15.70;99.90
74384;DHT22;62824;52.994;-3.936;2023-08-08T07:55:03;15.80;99.90
74384;DHT22;62824;52.994;-3.936;2023-08-08T07:57:29;15.70;99.90
74384;DHT22;62824;52.994;-3.936;2023-08-08T08:00:01;15.70;99.90
74384;DHT22;62824;52.994;-3.936;2023-08-08T08:02:33;15.80;99.90
74384;DHT22;62824;52.994;-3.936;2023-08-08T08:04:58;15.80;99.90
74384;DHT22;62824;52.994;-3.936;2023-08-08T08:07:24;15.80;99.90
74384;DHT22;62824;52.994;-3.936;2023-08-08T08:09:50;15.70;99.90
74384;DHT22;62824;52.994;-3.936;2023-08-08T08:12:16;15.80;99.90
74384;DHT22;62824;52.994;-3.936;2023-08-08T08:14:42;15.90;99.90
74384;DHT22;62824;52.994;-3.936;2023-08-08T08:17:07;16.00;99.90
74384;DHT22;62824;52.994;-3.936;2023-08-08T08:19:34;16.00;99.90
74384;DHT22;62824;52.994;-3.936;2023-08-08T08:22:00;16.00;99.90
74384;DHT22;62824;52.994;-3.936;2023-08-08T08:24:25;15.90;99.90
74384;DHT22;62824;52.994;-3.936;2023-08-08T08:26:51;16.00;99.90
74384;DHT22;62824;52.994;-3.936;2023-08-08T08:29:17;16.00;99.90
74384;DHT22;62824;52.994;-3.936;2023-08-08T08:31:43;16.10;99.90
74384;DHT22;62824;52.994;-3.936;2023-08-08T08:34:09;16.10;99.90
74384;DHT22;62824;52.994;-3.936;2023-08-08T08:36:34;15.90;99.90
74384;DHT22;62824;52.994;-3.936;2023-08-08T08:39:00;16.00;99.90
74384;DHT22;62824;52.994;-3.936;2023-08-08T08:41:28;16.20;99.90
74384;DHT22;62824;52.994;-3.936;2023-08-08T08:43:54;16.40;99.90
74384;DHT22;62824;52.994;-3.936;2023-08-08T08:46:22;16.50;99.90
74384;DHT22;62824;52.994;-3.936;2023-08-08T08:48:51;16.60;99.90
74384;DHT22;62824;52.994;-3.936;2023-08-08T08:51:18;16.60;99.90
74384;DHT22;62824;52.994;-3.936;2023-08-08T08:53:44;16.60;99.90
74384;DHT22;62824;52.994;-3.936;2023-08-08T08:56:14;16.70;99.90
74384;DHT22;62824;52.994;-3.936;2023-08-08T08:58:40;16.90;99.90
74384;DHT22;62824;52.994;-3.936;2023-08-08T09:01:07;17.00;99.90
74384;DHT22;62824;52.994;-3.936;2023-08-08T09:03:34;17.00;99.90
74384;DHT22;62824;52.994;-3.936;2023-08-08T09:06:00;17.00;99.90
74384;DHT22;62824;52.994;-3.936;2023-08-08T09:08:26;16.90;99.90
74384;DHT22;62824;52.994;-3.936;2023-08-08T09:10:52;17.00;99.90
74384;DHT22;62824;52.994;-3.936;2023-08-08T09:13:18;17.30;99.90
74384;DHT22;62824;52.994;-3.936;2023-08-08T09:15:47;17.40;99.90
74384;DHT22;62824;52.994;-3.936;2023-08-08T09:18:14;17.40;97.80
74384;DHT22;62824;52.994;-3.936;2023-08-08T09:20:40;17.20;98.90
74384;DHT22;62824;52.994;-3.936;2023-08-08T09:23:06;16.90;99.90
74384;DHT22;62824;52.994;-3.936;2023-08-08T09:25:34;17.00;99.90
74384;DHT22;62824;52.994;-3.936;2023-08-08T09:28:00;17.00;99.90
74384;DHT22;62824;52.994;-3.936;2023-08-08T09:30:26;17.20;99.90
74384;DHT22;62824;52.994;-3.936;2023-08-08T09:32:52;17.40;99.90
74384;DHT22;62824;52.994;-3.936;2023-08-08T09:35:18;17.60;98.00
74384;DHT22;62824;52.994;-3.936;2023-08-08T09:37:44;18.00;95.70
74384;DHT22;62824;52.994;-3.936;2023-08-08T09:40:10;18.20;96.30
74384;DHT22;62824;52.994;-3.936;2023-08-08T09:42:37;18.00;96.40
74384;DHT22;62824;52.994;-3.936;2023-08-08T09:45:03;17.90;96.70
74384;DHT22;62824;52.994;-3.936;2023-08-08T09:47:30;17.90;98.40
74384;DHT22;62824;52.994;-3.936;2023-08-08T09:50:03;18.10;96.40
74384;DHT22;62824;52.994;-3.936;2023-08-08T09:52:36;18.40;94.30
74384;DHT22;62824;52.994;-3.936;2023-08-08T09:55:05;18.30;94.50
74384;DHT22;62824;52.994;-3.936;2023-08-08T09:57:32;18.40;95.90
74384;DHT22;62824;52.994;-3.936;2023-08-08T09:59:58;18.50;96.30
74384;DHT22;62824;52.994;-3.936;2023-08-08T10:02:24;19.00;93.60
74384;DHT22;62824;52.994;-3.936;2023-08-08T10:04:51;19.20;91.00
74384;DHT22;62824;52.994;-3.936;2023-08-08T10:07:18;19.20;85.40
74384;DHT22;62824;52.994;-3.936;2023-08-08T10:09:43;19.00;90.10
74384;DHT22;62824;52.994;-3.936;2023-08-08T10:12:11;19.20;85.70
74384;DHT22;62824;52.994;-3.936;2023-08-08T10:14:41;18.90;86.90
74384;DHT22;62824;52.994;-3.936;2023-08-08T10:17:13;18.60;92.40
74384;DHT22;62824;52.994;-3.936;2023-08-08T10:19:39;18.50;93.50
74384;DHT22;62824;52.994;-3.936;2023-08-08T10:22:05;18.40;93.50
74384;DHT22;62824;52.994;-3.936;2023-08-08T10:24:35;18.30;94.30
74384;DHT22;62824;52.994;-3.936;2023-08-08T10:27:01;18.10;97.40
74384;DHT22;62824;52.994;-3.936;2023-08-08T10:29:32;18.20;99.00
74384;DHT22;62824;52.994;-3.936;2023-08-08T10:32:03;18.60;96.30
74384;DHT22;62824;52.994;-3.936;2023-08-08T10:34:46;18.80;92.00
74384;DHT22;62824;52.994;-3.936;2023-08-08T10:37:17;18.50;91.60
74384;DHT22;62824;52.994;-3.936;2023-08-08T10:39:54;18.30;94.60
74384;DHT22;62824;52.994;-3.936;2023-08-08T10:42:22;18.10;97.40
74384;DHT22;62824;52.994;-3.936;2023-08-08T10:44:55;18.20;96.10
74384;DHT22;62824;52.994;-3.936;2023-08-08T10:47:31;17.90;99.90
74384;DHT22;62824;52.994;-3.936;2023-08-08T10:49:59;18.20;99.90
74384;DHT22;62824;52.994;-3.936;2023-08-08T10:52:25;18.50;97.70
74384;DHT22;62824;52.994;-3.936;2023-08-08T10:54:54;18.80;97.30
74384;DHT22;62824;52.994;-3.936;2023-08-08T10:57:23;18.70;95.60
74384;DHT22;62824;52.994;-3.936;2023-08-08T10:59:49;18.70;97.90
74384;DHT22;62824;52.994;-3.936;2023-08-08T11:02:15;18.80;96.10
74384;DHT22;62824;52.994;-3.936;2023-08-08T11:04:41;18.50;97.10
74384;DHT22;62824;52.994;-3.936;2023-08-08T11:07:07;18.30;99.90
74384;DHT22;62824;52.994;-3.936;2023-08-08T11:09:34;18.30;99.90
74384;DHT22;62824;52.994;-3.936;2023-08-08T11:12:00;18.10;99.90
74384;DHT22;62824;52.994;-3.936;2023-08-08T11:14:26;18.00;99.90
74384;DHT22;62824;52.994;-3.936;2023-08-08T11:16:52;17.90;99.90
74384;DHT22;62824;52.994;-3.936;2023-08-08T11:19:18;18.00;99.90
74384;DHT22;62824;52.994;-3.936;2023-08-08T11:21:48;18.10;99.70
74384;DHT22;62824;52.994;-3.936;2023-08-08T11:24:15;18.20;99.60
74384;DHT22;62824;52.994;-3.936;2023-08-08T11:26:42;18.40;98.40
74384;DHT22;62824;52.994;-3.936;2023-08-08T11:29:11;18.40;97.30
74384;DHT22;62824;52.994;-3.936;2023-08-08T11:31:37;18.40;98.00
74384;DHT22;62824;52.994;-3.936;2023-08-08T11:34:04;18.30;98.50
74384;DHT22;62824;52.994;-3.936;2023-08-08T11:36:34;18.50;98.00
74384;DHT22;62824;52.994;-3.936;2023-08-08T11:39:02;18.90;95.20
74384;DHT22;62824;52.994;-3.936;2023-08-08T11:41:34;19.50;86.80
74384;DHT22;62824;52.994;-3.936;2023-08-08T11:44:05;19.80;81.70
74384;DHT22;62824;52.994;-3.936;2023-08-08T11:46:32;19.80;83.90
74384;DHT22;62824;52.994;-3.936;2023-08-08T11:49:05;19.70;83.20
74384;DHT22;62824;52.994;-3.936;2023-08-08T11:51:33;19.70;78.50
74384;DHT22;62824;52.994;-3.936;2023-08-08T11:54:00;19.60;77.70
74384;DHT22;62824;52.994;-3.936;2023-08-08T11:56:26;19.50;84.20
74384;DHT22;62824;52.994;-3.936;2023-08-08T11:58:52;19.10;90.10
74384;DHT22;62824;52.994;-3.936;2023-08-08T12:01:25;18.90;93.70
74384;DHT22;62824;52.994;-3.936;2023-08-08T12:03:51;18.90;92.70
74384;DHT22;62824;52.994;-3.936;2023-08-08T12:06:18;18.80;94.20
74384;DHT22;62824;52.994;-3.936;2023-08-08T12:08:45;18.80;94.80
74384;DHT22;62824;52.994;-3.936;2023-08-08T12:11:13;18.90;96.10
74384;DHT22;62824;52.994;-3.936;2023-08-08T12:13:41;19.00;95.20
74384;DHT22;62824;52.994;-3.936;2023-08-08T12:16:11;19.10;93.30
74384;DHT22;62824;52.994;-3.936;2023-08-08T12:18:38;18.90;95.30
74384;DHT22;62824;52.994;-3.936;2023-08-08T12:21:05;19.00;95.50
74384;DHT22;62824;52.994;-3.936;2023-08-08T12:23:32;19.00;96.50
74384;DHT22;62824;52.994;-3.936;2023-08-08T12:25:58;18.90;96.10
74384;DHT22;62824;52.994;-3.936;2023-08-08T12:28:25;18.90;95.60
74384;DHT22;62824;52.994;-3.936;2023-08-08T12:30:50;18.80;98.40
74384;DHT22;62824;52.994;-3.936;2023-08-08T12:33:16;18.70;98.90
74384;DHT22;62824;52.994;-3.936;2023-08-08T12:35:45;18.60;99.70
74384;DHT22;62824;52.994;-3.936;2023-08-08T12:38:11;18.70;99.90
74384;DHT22;62824;52.994;-3.936;2023-08-08T12:40:37;18.70;99.40
74384;DHT22;62824;52.994;-3.936;2023-08-08T12:43:03;18.90;97.70
74384;DHT22;62824;52.994;-3.936;2023-08-08T12:45:28;19.00;97.60
74384;DHT22;62824;52.994;-3.936;2023-08-08T12:47:54;18.80;96.80
74384;DHT22;62824;52.994;-3.936;2023-08-08T12:50:20;18.60;98.20
74384;DHT22;62824;52.994;-3.936;2023-08-08T12:52:46;18.50;97.60
74384;DHT22;62824;52.994;-3.936;2023-08-08T12:55:11;18.60;97.90
74384;DHT22;62824;52.994;-3.936;2023-08-08T12:57:37;18.60;97.50
74384;DHT22;62824;52.994;-3.936;2023-08-08T13:00:05;18.50;97.40
74384;DHT22;62824;52.994;-3.936;2023-08-08T13:02:32;18.50;96.80
74384;DHT22;62824;52.994;-3.936;2023-08-08T13:04:58;18.60;95.80
74384;DHT22;62824;52.994;-3.936;2023-08-08T13:07:24;18.70;93.10
74384;DHT22;62824;52.994;-3.936;2023-08-08T13:09:50;18.70;94.60
74384;DHT22;62824;52.994;-3.936;2023-08-08T13:12:15;18.80;92.60
74384;DHT22;62824;52.994;-3.936;2023-08-08T13:14:41;19.00;94.70
74384;DHT22;62824;52.994;-3.936;2023-08-08T13:17:07;19.20;96.70
74384;DHT22;62824;52.994;-3.936;2023-08-08T13:19:33;19.20;97.30
74384;DHT22;62824;52.994;-3.936;2023-08-08T13:21:58;19.20;98.50
74384;DHT22;62824;52.994;-3.936;2023-08-08T13:24:24;19.00;99.90
74384;DHT22;62824;52.994;-3.936;2023-08-08T13:26:50;19.00;99.90
74384;DHT22;62824;52.994;-3.936;2023-08-08T13:29:16;18.90;99.90
74384;DHT22;62824;52.994;-3.936;2023-08-08T13:31:42;18.80;99.90
74384;DHT22;62824;52.994;-3.936;2023-08-08T13:34:09;18.50;99.90
74384;DHT22;62824;52.994;-3.936;2023-08-08T13:36:35;18.30;99.90
74384;DHT22;62824;52.994;-3.936;2023-08-08T13:39:01;18.30;99.90
74384;DHT22;62824;52.994;-3.936;2023-08-08T13:41:27;18.40;99.90
74384;DHT22;62824;52.994;-3.936;2023-08-08T13:43:52;18.50;99.90
74384;DHT22;62824;52.994;-3.936;2023-08-08T13:46:18;18.20;99.90
74384;DHT22;62824;52.994;-3.936;2023-08-08T13:48:44;18.10;99.90
74384;DHT22;62824;52.994;-3.936;2023-08-08T13:51:10;18.10;99.90
74384;DHT22;62824;52.994;-3.936;2023-08-08T13:53:36;18.00;99.90
74384;DHT22;62824;52.994;-3.936;2023-08-08T13:56:02;18.00;99.90
74384;DHT22;62824;52.994;-3.936;2023-08-08T13:58:28;17.90;99.90
74384;DHT22;62824;52.994;-3.936;2023-08-08T14:00:55;17.70;99.90
74384;DHT22;62824;52.994;-3.936;2023-08-08T14:03:23;17.60;99.90
74384;DHT22;62824;52.994;-3.936;2023-08-08T14:05:50;17.60;99.90
74384;DHT22;62824;52.994;-3.936;2023-08-08T14:08:18;17.70;99.90
74384;DHT22;62824;52.994;-3.936;2023-08-08T14:10:44;17.70;99.90
74384;DHT22;62824;52.994;-3.936;2023-08-08T14:13:10;17.70;99.90
74384;DHT22;62824;52.994;-3.936;2023-08-08T14:15:37;18.00;99.90
74384;DHT22;62824;52.994;-3.936;2023-08-08T14:18:03;18.30;99.90
74384;DHT22;62824;52.994;-3.936;2023-08-08T14:20:29;18.60;99.90
74384;DHT22;62824;52.994;-3.936;2023-08-08T14:22:55;18.90;99.90
74384;DHT22;62824;52.994;-3.936;2023-08-08T14:25:22;19.10;99.90
74384;DHT22;62824;52.994;-3.936;2023-08-08T14:27:48;19.10;99.90
74384;DHT22;62824;52.994;-3.936;2023-08-08T14:30:14;19.10;99.90
74384;DHT22;62824;52.994;-3.936;2023-08-08T14:32:40;18.80;99.90
74384;DHT22;62824;52.994;-3.936;2023-08-08T14:35:06;18.60;99.90
74384;DHT22;62824;52.994;-3.936;2023-08-08T14:37:37;18.40;99.90
74384;DHT22;62824;52.994;-3.936;2023-08-08T14:40:03;18.50;99.90
74384;DHT22;62824;52.994;-3.936;2023-08-08T14:42:29;18.60;99.90
74384;DHT22;62824;52.994;-3.936;2023-08-08T14:44:55;18.80;99.90
74384;DHT22;62824;52.994;-3.936;2023-08-08T14:47:21;18.90;99.90
74384;DHT22;62824;52.994;-3.936;2023-08-08T14:49:47;19.20;99.90
74384;DHT22;62824;52.994;-3.936;2023-08-08T14:52:13;19.50;99.50
74384;DHT22;62824;52.994;-3.936;2023-08-08T14:54:39;19.80;97.20
74384;DHT22;62824;52.994;-3.936;2023-08-08T14:57:05;20.00;91.40
74384;DHT22;62824;52.994;-3.936;2023-08-08T14:59:31;19.90;91.50
74384;DHT22;62824;52.994;-3.936;2023-08-08T15:01:57;20.00;91.30
74384;DHT22;62824;52.994;-3.936;2023-08-08T15:04:23;20.10;89.50
74384;DHT22;62824;52.994;-3.936;2023-08-08T15:06:49;20.20;90.00
74384;DHT22;62824;52.994;-3.936;2023-08-08T15:09:15;20.20;86.50
74384;DHT22;62824;52.994;-3.936;2023-08-08T15:11:40;20.30;79.00
74384;DHT22;62824;52.994;-3.936;2023-08-08T15:14:06;20.00;77.80